Time;durP1;ratioP1;P1;durP2;ratioP2;P2;SDS_P1;SDS_P2;PMS_P1;PMS_P2;Temp;Humidity;BMP_temperature;BMP_pressure;BME280_temperature;BME280_humidity;BME280_pressure;Samples;Min_cycle;Max_cycle;Signal;HPM_P1;HPM_P2
2022/05/24 00:00:30;;;;;;;;;2.00;2.00;;;;;14.82;72.95;99894.91;5036532;28;45459;-59
2022/05/24 00:02:56;;;;;;;;;3.67;3.67;;;;;14.85;72.72;99910.72;5035353;28;46150;-59
2022/05/24 00:05:23;;;;;;;;;4.33;4.00;;;;;14.84;73.04;99909.00;5033440;28;45841;-59
2022/05/24 00:07:49;;;;;;;;;4.00;2.00;;;;;14.83;72.60;99913.50;5036184;28;45493;-60
2022/05/24 00:10:18;;;;;;;;;3.00;2.00;;;;;14.79;72.85;99908.56;5028910;28;45446;-60
2022/05/24 00:12:44;;;;;;;;;2.00;2.00;;;;;14.77;72.70;99914.03;5027748;28;47124;-59
2022/05/24 00:15:19;;;;;;;;;5.33;2.67;;;;;14.75;72.53;99916.00;5017000;28;45669;-60
2022/05/24 00:18:03;;;;;;;;;2.33;2.00;;;;;14.66;72.37;99928.31;5035859;28;45457;-60
2022/05/24 00:20:35;;;;;;;;;2.67;2.00;;;;;14.61;72.00;99935.88;5030469;28;45324;-59
2022/05/24 00:23:01;;;;;;;;;4.33;2.33;;;;;14.54;72.15;99944.53;5033233;28;46426;-59
2022/05/24 00:25:28;;;;;;;;;2.33;2.33;;;;;14.50;71.92;99943.94;5034897;28;45695;-60
2022/05/24 00:27:54;;;;;;;;;2.00;2.00;;;;;14.45;71.89;99951.50;5034409;28;45554;-60
2022/05/24 00:30:21;;;;;;;;;1.33;1.33;;;;;14.39;71.35;99957.31;5035463;28;45484;-60
2022/05/24 00:32:47;;;;;;;;;2.00;2.00;;;;;14.36;71.58;99961.09;5032771;28;47593;-59
2022/05/24 00:35:13;;;;;;;;;2.00;2.00;;;;;14.32;71.05;99950.75;5020846;28;45518;-59
2022/05/24 00:37:40;;;;;;;;;2.67;2.00;;;;;14.31;71.51;99949.06;5022098;28;45436;-60
2022/05/24 00:40:09;;;;;;;;;2.67;2.00;;;;;14.31;71.16;99954.41;5034847;28;45524;-60
2022/05/24 00:42:38;;;;;;;;;3.00;2.00;;;;;14.26;70.63;99940.59;5035129;28;45782;-59
2022/05/24 00:45:22;;;;;;;;;1.67;1.00;;;;;14.20;70.63;99925.06;5033316;28;45451;-59
2022/05/24 00:47:58;;;;;;;;;2.00;2.00;;;;;14.16;70.44;99919.06;5014971;28;45373;-60
2022/05/24 00:50:31;;;;;;;;;1.00;1.00;;;;;14.15;70.53;99928.06;5018602;28;45540;-58
2022/05/24 00:53:01;;;;;;;;;3.33;2.00;;;;;14.11;71.05;99932.84;5039643;28;45417;-59
2022/05/24 00:55:30;;;;;;;;;2.67;2.00;;;;;14.07;70.46;99931.41;5035255;28;45350;-59
2022/05/24 00:58:12;;;;;;;;;2.33;2.33;;;;;14.06;69.99;99929.69;5034509;28;45331;-59
2022/05/24 01:00:38;;;;;;;;;2.00;2.00;;;;;14.00;70.04;99927.50;5032493;28;45514;-59
2022/05/24 01:03:04;;;;;;;;;1.00;1.00;;;;;13.96;70.29;99911.84;5028774;28;46157;-58
2022/05/24 01:05:31;;;;;;;;;1.33;1.00;;;;;13.97;70.38;99918.88;5033066;28;45409;-60
2022/05/24 01:07:57;;;;;;;;;2.67;2.00;;;;;13.92;69.75;99913.88;5030907;28;45472;-59
2022/05/24 01:10:48;;;;;;;;;3.00;1.00;;;;;13.90;69.90;99933.69;5015676;28;45359;-59
2022/05/24 01:13:22;;;;;;;;;1.33;1.33;;;;;13.87;70.17;99934.81;5014934;28;45474;-58
2022/05/24 01:15:50;;;;;;;;;3.00;1.67;;;;;13.86;70.31;99944.66;5015399;28;45412;-60
2022/05/24 01:18:16;;;;;;;;;1.00;1.00;;;;;13.74;69.66;99913.56;5034049;28;45455;-59
2022/05/24 01:20:44;;;;;;;;;2.67;1.67;;;;;13.84;70.21;99940.41;5022898;28;45528;-59
2022/05/24 01:23:38;;;;;;;;;1.67;1.00;;;;;13.86;70.08;99938.47;5021175;28;46151;-59
2022/05/24 01:26:08;;;;;;;;;2.00;2.00;;;;;13.86;70.06;99938.47;5035815;28;45545;-59
2022/05/24 01:28:40;;;;;;;;;1.00;1.00;;;;;13.91;70.16;99946.09;5038135;28;45232;-60
2022/05/24 01:31:06;;;;;;;;;1.00;1.00;;;;;13.89;69.65;99943.56;5037743;28;45303;-59
2022/05/24 01:36:19;;;;;;;;;3.00;1.00;;;;;13.83;69.51;99938.72;5018620;28;45232;-59
2022/05/24 01:38:51;;;;;;;;;1.00;1.00;;;;;13.80;69.18;99947.81;5025484;28;45636;-59
2022/05/24 01:41:20;;;;;;;;;1.00;1.00;;;;;13.79;69.49;99947.91;5033007;28;45728;-58
2022/05/24 01:43:49;;;;;;;;;1.00;1.00;;;;;13.81;69.38;99951.34;5017462;28;45457;-59
2022/05/24 01:46:17;;;;;;;;;1.00;1.00;;;;;13.83;69.73;99944.06;5025769;28;45523;-59
2022/05/24 01:48:53;;;;;;;;;2.00;2.00;;;;;13.86;69.49;99957.16;5047870;28;45388;-59
2022/05/24 01:51:25;;;;;;;;;2.00;2.00;;;;;13.90;69.26;99961.28;5038310;28;45532;-59
2022/05/24 01:53:57;;;;;;;;;1.00;1.00;;;;;13.90;69.26;99958.63;5031914;28;46988;-59
2022/05/24 01:56:35;;;;;;;;;1.00;1.00;;;;;13.86;69.48;99950.00;5024125;28;45362;-60
2022/05/24 01:59:03;;;;;;;;;0.00;0.00;;;;;13.84;69.11;99959.13;5027258;28;45576;-59
2022/05/24 02:01:41;;;;;;;;;1.00;1.00;;;;;13.82;69.36;99969.09;5036850;28;45536;-59
2022/05/24 02:04:07;;;;;;;;;1.67;1.67;;;;;13.81;69.47;99964.72;5027938;28;45418;-60
2022/05/24 02:06:33;;;;;;;;;1.00;1.00;;;;;13.78;68.46;99968.44;5037646;28;45425;-59
2022/05/24 02:08:59;;;;;;;;;1.00;1.00;;;;;13.70;68.84;99962.03;5026396;28;45359;-58
2022/05/24 02:11:28;;;;;;;;;2.00;2.00;;;;;13.66;70.41;99958.72;5018537;28;45324;-59
2022/05/24 02:13:58;;;;;;;;;2.00;1.00;;;;;13.65;70.02;99961.53;5023758;28;45764;-58
2022/05/24 02:16:26;;;;;;;;;1.33;1.00;;;;;13.63;70.63;99966.16;5017485;28;45463;-59
2022/05/24 02:18:54;;;;;;;;;1.33;0.67;;;;;13.58;70.54;99951.34;5017998;28;45207;-59
2022/05/24 02:21:21;;;;;;;;;0.00;0.00;;;;;13.57;71.05;99952.31;5028945;28;45730;-59
2022/05/24 02:23:49;;;;;;;;;0.67;0.67;;;;;13.48;70.65;99961.03;5036082;28;45551;-58
2022/05/24 02:26:16;;;;;;;;;0.00;0.00;;;;;13.45;71.39;99973.78;5037177;28;45350;-59
2022/05/24 02:28:42;;;;;;;;;2.00;0.00;;;;;13.37;71.23;99966.34;5027606;28;45582;-59
2022/05/24 02:31:17;;;;;;;;;1.00;1.00;;;;;13.37;71.45;99965.50;5027718;28;45550;-59
2022/05/24 02:33:43;;;;;;;;;1.00;1.00;;;;;13.34;71.46;99971.94;5028679;28;45374;-59
2022/05/24 02:36:09;;;;;;;;;2.00;0.67;;;;;13.29;72.06;99960.78;5036286;28;45297;-59
2022/05/24 02:38:34;;;;;;;;;1.67;0.67;;;;;13.30;72.02;99973.16;5036044;28;45578;-59
2022/05/24 02:43:45;;;;;;;;;2.00;1.00;;;;;13.30;71.84;99972.31;5031064;28;45813;-58
2022/05/24 02:46:10;;;;;;;;;0.67;0.67;;;;;13.25;72.50;99965.47;5024006;28;45584;-59
2022/05/24 02:48:37;;;;;;;;;1.00;1.00;;;;;13.20;72.74;99977.50;5021518;28;45426;-59
2022/05/24 02:51:12;;;;;;;;;1.33;1.00;;;;;13.14;72.27;99976.09;5037378;28;45340;-60
2022/05/24 02:53:39;;;;;;;;;2.00;0.00;;;;;13.14;72.29;99967.25;5036056;28;46212;-59
2022/05/24 02:56:06;;;;;;;;;2.67;1.00;;;;;13.13;72.34;99986.91;5035681;28;45456;-59
2022/05/24 02:58:32;;;;;;;;;2.00;1.00;;;;;13.09;72.90;99977.44;5036420;28;45697;-58
2022/05/24 03:00:58;;;;;;;;;1.00;1.00;;;;;13.09;73.26;99990.78;5033264;28;45445;-59
2022/05/24 03:03:23;;;;;;;;;1.33;0.00;;;;;13.06;72.95;99989.19;5035654;28;45286;-59
2022/05/24 03:05:49;;;;;;;;;1.00;1.00;;;;;13.04;73.28;99984.94;5036497;28;45876;-59
2022/05/24 03:10:58;;;;;;;;;1.00;1.00;;;;;13.04;72.57;99991.13;5017369;28;45240;-60
2022/05/24 03:16:13;;;;;;;;;1.00;1.00;;;;;13.02;72.74;99998.41;5020224;28;45421;-58
2022/05/24 03:18:40;;;;;;;;;1.00;1.00;;;;;13.00;73.26;100003.84;5023417;28;45523;-59
2022/05/24 03:21:05;;;;;;;;;1.67;1.00;;;;;13.04;72.74;100003.63;5036847;28;45322;-58
2022/05/24 03:23:31;;;;;;;;;2.00;1.33;;;;;13.04;73.58;100004.50;5050917;28;46515;-59
2022/05/24 03:25:57;;;;;;;;;1.00;1.00;;;;;12.98;72.79;100013.78;5036490;28;45355;-59
2022/05/24 03:28:22;;;;;;;;;0.67;0.67;;;;;12.98;73.25;100016.47;5035650;28;45427;-58
2022/05/24 03:30:51;;;;;;;;;3.00;2.00;;;;;12.91;73.21;100017.91;5030752;28;45313;-60
2022/05/24 03:33:17;;;;;;;;;1.00;1.00;;;;;12.91;73.39;100023.25;5016207;28;46028;-59
2022/05/24 03:35:43;;;;;;;;;0.00;0.00;;;;;12.91;73.46;100028.56;5027965;28;45392;-59
2022/05/24 03:38:08;;;;;;;;;1.67;0.33;;;;;12.92;73.21;100032.09;5033231;28;45464;-59
2022/05/24 03:40:35;;;;;;;;;0.67;0.67;;;;;12.89;73.40;100021.63;5033432;28;45343;-58
2022/05/24 03:43:01;;;;;;;;;2.00;2.00;;;;;12.89;73.32;100032.31;5031237;28;47572;-59
2022/05/24 03:45:27;;;;;;;;;1.00;1.00;;;;;12.86;72.98;100024.53;5033660;28;45597;-60
2022/05/24 03:47:53;;;;;;;;;4.67;1.33;;;;;12.79;73.26;100017.97;5036297;28;45371;-59
2022/05/24 03:50:19;;;;;;;;;1.00;1.00;;;;;12.79;73.37;100032.16;5035430;28;45315;-60
2022/05/24 03:52:45;;;;;;;;;1.33;0.33;;;;;12.81;73.53;100046.22;5036232;28;45554;-60
2022/05/24 03:55:11;;;;;;;;;2.00;2.00;;;;;12.79;73.19;100053.50;5017526;28;45420;-59
2022/05/24 04:00:24;;;;;;;;;0.00;0.00;;;;;12.73;72.97;100047.75;5035369;28;45462;-59
2022/05/24 04:02:49;;;;;;;;;2.00;1.00;;;;;12.68;73.18;100056.09;5027583;28;45423;-58
2022/05/24 04:05:15;;;;;;;;;1.00;1.00;;;;;12.69;72.76;100065.81;5021852;28;45462;-59
2022/05/24 04:07:41;;;;;;;;;0.33;0.33;;;;;12.64;73.14;100065.31;5016069;28;45382;-60
2022/05/24 04:10:09;;;;;;;;;0.67;0.67;;;;;12.67;72.89;100065.06;5026995;28;45556;-61
2022/05/24 04:12:34;;;;;;;;;0.00;0.00;;;;;12.65;73.21;100064.34;5028389;28;46340;-60
2022/05/24 04:15:00;;;;;;;;;0.33;0.33;;;;;12.68;72.59;100066.78;5015737;28;45482;-59
2022/05/24 04:17:26;;;;;;;;;1.00;1.00;;;;;12.67;72.74;100078.41;5017402;28;45504;-59
2022/05/24 04:19:51;;;;;;;;;0.33;0.33;;;;;12.63;72.88;100076.91;5026325;28;45445;-59
2022/05/24 04:22:17;;;;;;;;;1.00;1.00;;;;;12.59;72.78;100078.09;5035179;28;45370;-59
2022/05/24 04:24:42;;;;;;;;;2.67;1.33;;;;;12.54;73.15;100065.13;5017405;28;45466;-59
2022/05/24 04:27:08;;;;;;;;;2.00;0.00;;;;;12.56;72.74;100083.66;5021320;28;45328;-60
2022/05/24 04:29:34;;;;;;;;;0.00;0.00;;;;;12.53;72.38;100073.22;5035328;28;45564;-59
2022/05/24 04:32:00;;;;;;;;;2.00;0.67;;;;;12.53;72.67;100073.22;5020349;28;45375;-59
2022/05/24 04:34:25;;;;;;;;;0.00;0.00;;;;;12.56;73.22;100073.00;5024202;28;46231;-61
2022/05/24 04:36:50;;;;;;;;;1.33;1.33;;;;;12.55;72.77;100084.63;5015216;28;45597;-59
2022/05/24 04:39:17;;;;;;;;;1.00;1.00;;;;;12.56;72.77;100094.34;5015644;28;45588;-59
2022/05/24 04:44:27;;;;;;;;;0.00;0.00;;;;;12.53;72.13;100100.75;5017218;28;45747;-60
2022/05/24 04:47:08;;;;;;;;;1.00;1.00;;;;;12.51;72.01;100097.34;5024967;28;45942;-60
2022/05/24 04:49:35;;;;;;;;;0.00;0.00;;;;;12.47;71.96;100105.66;5033383;28;45390;-59
2022/05/24 04:52:01;;;;;;;;;1.00;1.00;;;;;12.47;72.35;100105.66;5030162;28;46144;-59
2022/05/24 04:54:26;;;;;;;;;0.00;0.00;;;;;12.48;71.98;100115.38;5052041;28;45755;-59
2022/05/24 04:56:52;;;;;;;;;1.00;1.00;;;;;12.49;72.22;100109.06;5040095;28;45232;-64
2022/05/24 04:59:17;;;;;;;;;0.00;0.00;;;;;12.52;71.99;100119.53;5038324;28;45251;-58
2022/05/24 05:01:44;;;;;;;;;0.00;0.00;;;;;12.47;72.15;100116.31;5035692;28;45565;-58
2022/05/24 05:04:10;;;;;;;;;0.00;0.00;;;;;12.48;72.30;100123.38;5032291;28;45407;-58
2022/05/24 05:06:36;;;;;;;;;1.00;1.00;;;;;12.48;72.09;100129.56;5041759;28;45383;-60
2022/05/24 05:09:01;;;;;;;;;0.00;0.00;;;;;12.50;72.22;100132.09;5040650;28;45515;-60
2022/05/24 05:11:26;;;;;;;;;0.00;0.00;;;;;12.54;71.94;100130.94;5036460;28;46427;-59
2022/05/24 05:13:52;;;;;;;;;2.33;1.00;;;;;12.56;71.34;100137.03;5027610;28;45411;-60
2022/05/24 05:16:17;;;;;;;;;0.00;0.00;;;;;12.56;71.20;100137.88;5047057;28;45466;-59
2022/05/24 05:18:43;;;;;;;;;1.00;1.00;;;;;12.48;70.87;100126.88;5039560;28;45663;-60
2022/05/24 05:21:09;;;;;;;;;1.00;1.00;;;;;12.54;71.59;100144.28;5019701;28;47481;-58
2022/05/24 05:23:34;;;;;;;;;2.00;1.00;;;;;12.54;71.18;100139.81;5027880;28;45458;-60
2022/05/24 05:25:59;;;;;;;;;1.00;0.00;;;;;12.59;71.01;100148.31;5034094;28;45342;-60
2022/05/24 05:28:25;;;;;;;;;0.33;0.33;;;;;12.61;71.23;100164.22;5036583;28;45526;-59
2022/05/24 05:33:35;;;;;;;;;1.67;1.00;;;;;12.65;70.94;100157.72;5040677;28;45387;-58
2022/05/24 05:36:01;;;;;;;;;0.00;0.00;;;;;12.63;70.94;100159.59;5027925;28;45564;-59
2022/05/24 05:38:26;;;;;;;;;0.00;0.00;;;;;12.67;70.96;100163.78;5051248;28;45346;-59
2022/05/24 05:40:54;;;;;;;;;0.67;0.67;;;;;12.71;71.11;100162.59;5024445;28;45351;-58
2022/05/24 05:43:20;;;;;;;;;1.00;1.00;;;;;12.76;70.88;100168.47;5018239;28;45220;-59
2022/05/24 05:45:57;;;;;;;;;0.00;0.00;;;;;12.76;70.82;100173.81;5045200;28;45477;-59
2022/05/24 05:48:23;;;;;;;;;0.00;0.00;;;;;12.74;71.06;100178.38;5026577;28;45534;-59
2022/05/24 05:50:49;;;;;;;;;0.33;0.33;;;;;12.79;70.71;100186.06;5026403;28;45580;-58
2022/05/24 05:53:15;;;;;;;;;1.33;1.33;;;;;12.85;70.30;100181.13;5018145;28;45407;-60
2022/05/24 05:55:41;;;;;;;;;1.00;1.00;;;;;12.84;70.80;100179.44;5018180;28;45327;-61
2022/05/24 05:58:07;;;;;;;;;1.67;1.00;;;;;12.94;69.95;100201.84;5026917;28;45584;-59
2022/05/24 06:00:34;;;;;;;;;2.33;1.00;;;;;13.02;70.02;100203.06;5039063;28;46536;-59
2022/05/24 06:02:59;;;;;;;;;0.00;0.00;;;;;13.05;69.94;100202.88;5036577;28;45504;-60
2022/05/24 06:05:25;;;;;;;;;2.00;0.00;;;;;12.98;69.86;100189.09;5022785;28;45209;-58
2022/05/24 06:07:50;;;;;;;;;1.00;1.00;;;;;13.00;70.25;100201.38;5025924;28;45552;-60
2022/05/24 06:10:16;;;;;;;;;2.00;0.00;;;;;13.03;69.79;100197.66;5037465;28;45438;-60
2022/05/24 06:12:42;;;;;;;;;0.67;0.00;;;;;13.05;69.59;100210.88;5026527;28;45518;-61
2022/05/24 06:15:10;;;;;;;;;2.00;0.67;;;;;13.09;69.10;100209.69;5018184;28;46145;-59
2022/05/24 06:18:02;;;;;;;;;1.00;1.00;;;;;13.24;69.64;100216.63;5038104;28;45690;-58
2022/05/24 06:20:30;;;;;;;;;2.33;1.00;;;;;13.29;69.37;100222.50;5023996;28;46180;-61
2022/05/24 06:22:57;;;;;;;;;6.00;4.00;;;;;13.37;68.59;100217.41;5033369;28;45462;-61
2022/05/24 06:25:25;;;;;;;;;1.00;1.00;;;;;13.37;68.71;100222.75;5042757;28;45405;-59
2022/05/24 06:27:52;;;;;;;;;1.00;1.00;;;;;13.47;68.29;100233.63;5050543;28;45451;-58
2022/05/24 06:30:20;;;;;;;;;0.50;0.50;;;;;13.48;67.66;100224.66;5028673;28;45529;-60
2022/05/24 06:32:46;;;;;;;;;0.00;0.00;;;;;13.49;67.68;100221.00;5024065;28;45442;-58
2022/05/24 06:35:12;;;;;;;;;0.67;0.67;;;;;13.61;72.33;100232.59;5024798;28;45261;-60
2022/05/24 06:37:37;;;;;;;;;1.00;1.00;;;;;13.92;68.25;100221.31;5032160;28;45559;-61
2022/05/24 06:40:03;;;;;;;;;1.33;1.33;;;;;14.09;67.79;100233.41;5040120;28;45311;-55
2022/05/24 06:42:29;;;;;;;;;1.33;1.00;;;;;14.23;66.48;100235.88;5048642;28;45695;-58
2022/05/24 06:44:56;;;;;;;;;0.00;0.00;;;;;14.36;66.83;100225.09;5046675;28;45327;-54
2022/05/24 06:47:21;;;;;;;;;0.33;0.00;;;;;14.41;65.15;100234.44;5037183;28;45436;-55
2022/05/24 06:49:47;;;;;;;;;1.00;1.00;;;;;14.62;65.47;100228.44;5053690;28;46203;-59
2022/05/24 06:52:15;;;;;;;;;0.00;0.00;;;;;14.91;64.70;100234.16;5049405;28;45431;-58
2022/05/24 06:54:40;;;;;;;;;2.00;0.67;;;;;15.08;65.80;100239.00;5025221;28;45423;-60
2022/05/24 06:57:05;;;;;;;;;0.00;0.00;;;;;15.16;62.98;100241.09;5017010;28;45502;-67
2022/05/24 07:02:25;;;;;;;;;1.00;1.00;;;;;15.59;64.24;100249.16;5038845;28;45828;-61
2022/05/24 07:05:04;;;;;;;;;2.00;1.00;;;;;15.75;61.28;100249.59;5036745;28;45323;-54
2022/05/24 07:07:32;;;;;;;;;2.00;1.00;;;;;15.81;63.59;100251.78;5056078;28;45635;-59
2022/05/24 07:09:59;;;;;;;;;0.00;0.00;;;;;16.03;62.44;100255.38;5056724;28;45366;-56
2022/05/24 07:12:25;;;;;;;;;2.00;0.00;;;;;16.16;61.48;100250.69;5018708;28;45456;-53
2022/05/24 07:14:50;;;;;;;;;1.00;1.00;;;;;16.21;61.45;100253.81;5015003;28;45411;-57
2022/05/24 07:17:17;;;;;;;;;0.00;0.00;;;;;16.43;59.17;100256.38;5043075;28;45477;-51
2022/05/24 07:19:44;;;;;;;;;6.33;1.00;;;;;16.57;60.72;100267.75;5036209;28;46732;-48
2022/05/24 07:22:09;;;;;;;;;1.00;1.00;;;;;16.68;57.24;100259.66;5042107;28;45402;-56
2022/05/24 07:24:35;;;;;;;;;2.00;1.00;;;;;16.78;57.01;100264.06;5057037;28;45382;-59
2022/05/24 07:27:04;;;;;;;;;0.00;0.00;;;;;16.67;58.38;100257.94;5052135;28;45623;-58
2022/05/24 07:29:33;;;;;;;;;0.00;0.00;;;;;16.62;58.30;100265.50;5029121;28;45407;-56
2022/05/24 07:31:58;;;;;;;;;0.00;0.00;;;;;16.69;57.79;100261.34;5044198;28;45409;-60
2022/05/24 07:34:24;;;;;;;;;0.00;0.00;;;;;16.69;57.78;100266.72;5040876;28;45287;-56
2022/05/24 07:36:49;;;;;;;;;1.67;1.67;;;;;16.76;58.54;100260.69;5034752;28;45656;-59
2022/05/24 07:39:14;;;;;;;;;1.00;1.00;;;;;16.92;57.46;100265.56;5036301;28;45255;-56
2022/05/24 07:47:09;;;;;;;;;2.00;1.00;;;;;16.95;56.20;100273.38;5016167;28;45555;-65
2022/05/24 07:49:36;;;;;;;;;1.67;1.67;;;;;16.95;57.37;100262.63;5015075;28;45301;-54
2022/05/24 07:52:04;;;;;;;;;1.67;0.00;;;;;17.01;57.67;100266.59;5016264;28;45439;-65
2022/05/24 07:54:31;;;;;;;;;0.00;0.00;;;;;17.08;56.44;100265.06;5016421;28;45361;-61
2022/05/24 07:56:56;;;;;;;;;0.67;0.67;;;;;17.05;55.30;100266.19;5016819;28;45556;-60
2022/05/24 07:59:22;;;;;;;;;0.00;0.00;;;;;16.94;55.46;100260.06;5014431;28;45718;-62
2022/05/24 08:01:47;;;;;;;;;1.00;1.00;;;;;16.72;54.28;100269.13;5018320;28;45434;-58
2022/05/24 08:04:13;;;;;;;;;1.00;1.00;;;;;16.55;55.37;100269.72;5032744;28;45592;-63
2022/05/24 08:06:38;;;;;;;;;1.33;1.33;;;;;16.47;56.01;100279.28;5045003;28;45374;-61
2022/05/24 08:09:04;;;;;;;;;1.00;1.00;;;;;16.53;55.39;100273.38;5037112;28;46007;-62
2022/05/24 08:11:29;;;;;;;;;1.00;1.00;;;;;16.51;55.85;100275.34;5042945;28;45485;-62
2022/05/24 08:13:58;;;;;;;;;0.00;0.00;;;;;16.59;54.96;100277.38;5041953;28;45448;-61
2022/05/24 08:16:24;;;;;;;;;0.00;0.00;;;;;16.60;54.96;100275.53;5045889;28;45490;-61
2022/05/24 08:18:50;;;;;;;;;1.00;1.00;;;;;16.46;54.94;100272.22;5037857;28;46416;-61
2022/05/24 08:21:15;;;;;;;;;0.00;0.00;;;;;16.38;54.26;100281.88;5032993;28;45553;-61
2022/05/24 08:23:41;;;;;;;;;0.67;0.67;;;;;16.24;54.48;100283.06;5041091;28;45449;-62
2022/05/24 08:26:06;;;;;;;;;0.67;0.67;;;;;16.17;54.88;100276.53;5038274;28;45684;-61
2022/05/24 08:28:33;;;;;;;;;1.00;1.00;;;;;16.16;55.01;100290.91;5052707;28;45300;-61
2022/05/24 08:30:59;;;;;;;;;1.00;1.00;;;;;16.17;55.53;100282.75;5058959;28;45295;-63
2022/05/24 08:33:25;;;;;;;;;0.00;0.00;;;;;16.57;53.81;100282.03;5028640;28;45729;-62
2022/05/24 08:35:52;;;;;;;;;0.33;0.33;;;;;17.00;54.29;100276.50;5019464;28;45504;-60
2022/05/24 08:38:17;;;;;;;;;0.00;0.00;;;;;17.46;53.20;100269.72;5026267;28;45455;-61
2022/05/24 08:40:46;;;;;;;;;0.00;0.00;;;;;17.58;52.00;100276.69;5053686;28;45364;-63
2022/05/24 08:43:41;;;;;;;;;2.00;1.00;;;;;17.62;52.70;100277.25;5038310;28;45486;-63
2022/05/24 08:49:06;;;;;;;;;2.33;2.33;;;;;17.84;50.81;100284.22;5038902;28;45426;-62
2022/05/24 08:52:06;;;;;;;;;2.00;1.00;;;;;18.21;50.43;100274.47;5038919;28;45441;-60
2022/05/24 08:54:39;;;;;;;;;2.00;1.00;;;;;18.55;49.29;100265.94;5006575;28;45362;-61
2022/05/24 08:57:09;;;;;;;;;0.00;0.00;;;;;18.76;50.52;100265.78;5046960;28;45487;-61
2022/05/24 08:59:43;;;;;;;;;4.00;1.00;;;;;18.73;48.63;100277.69;5058708;28;46654;-60
2022/05/24 09:02:08;;;;;;;;;0.00;0.00;;;;;18.85;48.42;100268.44;5057187;28;45355;-62
2022/05/24 09:04:34;;;;;;;;;1.67;0.00;;;;;19.14;46.39;100272.84;5058485;28;45413;-61
2022/05/24 09:07:08;;;;;;;;;0.00;0.00;;;;;19.32;47.11;100275.63;5057885;28;45372;-60
2022/05/24 09:09:51;;;;;;;;;0.33;0.33;;;;;19.47;46.85;100266.03;5057754;28;46303;-61
2022/05/24 09:12:48;;;;;;;;;1.00;1.00;;;;;19.60;47.33;100277.34;5056190;28;45331;-60
2022/05/24 09:15:33;;;;;;;;;1.00;1.00;;;;;19.52;46.62;100270.97;5038549;28;45441;-60
2022/05/24 09:18:07;;;;;;;;;2.00;2.00;;;;;19.35;48.38;100269.94;5038747;28;45309;-61
2022/05/24 09:20:41;;;;;;;;;1.25;1.25;;;;;19.30;47.04;100275.78;5036964;28;48026;-61
2022/05/24 09:23:10;;;;;;;;;1.00;1.00;;;;;19.33;46.14;100280.88;5037025;28;46137;-62
2022/05/24 09:25:36;;;;;;;;;0.00;0.00;;;;;19.12;44.71;100274.84;5036686;28;45293;-61
2022/05/24 09:28:02;;;;;;;;;0.67;0.67;;;;;18.92;46.58;100279.50;5037345;28;45501;-61
2022/05/24 09:30:30;;;;;;;;;1.33;0.00;;;;;18.83;46.37;100280.38;5035938;28;46294;-61
2022/05/24 09:33:22;;;;;;;;;1.67;1.67;;;;;18.58;46.82;100281.81;5018362;28;45435;-62
2022/05/24 09:35:51;;;;;;;;;1.00;1.00;;;;;18.53;46.01;100278.72;5018437;28;45411;-61
2022/05/24 09:38:18;;;;;;;;;1.00;1.00;;;;;18.34;47.52;100289.50;5018007;28;45280;-60
2022/05/24 09:41:04;;;;;;;;;1.00;1.00;;;;;18.21;46.41;100298.69;5016759;28;46469;-61
2022/05/24 09:43:33;;;;;;;;;0.00;0.00;;;;;18.07;47.51;100293.75;5018124;28;45351;-61
2022/05/24 09:46:22;;;;;;;;;0.00;0.00;;;;;17.92;47.80;100295.16;5029200;28;45834;-61
2022/05/24 09:49:01;;;;;;;;;0.67;0.67;;;;;17.92;47.82;100290.63;5016858;28;45264;-61
2022/05/24 09:51:38;;;;;;;;;0.00;0.00;;;;;17.95;46.33;100300.25;5017781;28;45453;-60
2022/05/24 09:54:13;;;;;;;;;0.67;0.67;;;;;17.82;46.74;100295.13;5016345;28;45312;-61
2022/05/24 09:56:39;;;;;;;;;1.00;0.33;;;;;17.80;47.06;100301.66;5017458;28;45489;-62
2022/05/24 09:59:18;;;;;;;;;0.00;0.00;;;;;17.67;47.93;100305.41;5018318;28;45807;-61
2022/05/24 10:01:46;;;;;;;;;0.00;0.00;;;;;17.66;46.66;100303.72;5017702;28;45259;-61
2022/05/24 10:04:47;;;;;;;;;0.67;0.00;;;;;17.57;46.86;100303.69;5017870;28;45408;-60
2022/05/24 10:07:28;;;;;;;;;0.00;0.00;;;;;17.56;47.33;100310.91;4976177;28;45492;-61
2022/05/24 10:10:14;;;;;;;;;0.00;0.00;;;;;17.47;48.50;100305.53;5013895;28;45617;-61
2022/05/24 10:12:42;;;;;;;;;1.00;1.00;;;;;17.33;48.30;100306.75;5017248;28;46088;-62
2022/05/24 10:15:30;;;;;;;;;0.00;0.00;;;;;17.23;48.22;100303.19;5017054;28;45529;-61
2022/05/24 10:18:26;;;;;;;;;2.00;1.00;;;;;17.20;48.12;100308.81;5018340;28;45272;-62
2022/05/24 10:21:09;;;;;;;;;0.00;0.00;;;;;17.35;47.83;100319.06;5017023;28;45527;-62
2022/05/24 10:23:50;;;;;;;;;1.00;1.00;;;;;17.75;47.32;100307.47;5017744;28;45306;-62
2022/05/24 10:26:26;;;;;;;;;1.33;1.33;;;;;18.08;45.68;100316.97;5020479;28;45493;-62
2022/05/24 10:29:12;;;;;;;;;0.33;0.33;;;;;18.21;45.82;100317.53;5018082;28;45412;-60
2022/05/24 10:31:57;;;;;;;;;1.00;1.00;;;;;18.31;46.28;100316.69;5016486;28;45308;-61
2022/05/24 10:38:18;;;;;;;;;1.00;1.00;;;;;18.35;45.53;100305.50;5017397;28;45372;-61
2022/05/24 10:40:46;;;;;;;;;0.67;0.67;;;;;18.19;45.52;100314.16;5015287;28;45628;-62
2022/05/24 10:43:30;;;;;;;;;3.00;1.00;;;;;18.08;46.39;100305.34;5017739;28;45477;-61
2022/05/24 10:46:01;;;;;;;;;1.00;1.00;;;;;17.93;46.20;100304.94;5017784;28;45677;-62
2022/05/24 10:48:31;;;;;;;;;1.00;1.00;;;;;17.91;46.60;100325.75;5030619;28;45765;-61
2022/05/24 10:51:04;;;;;;;;;1.00;1.00;;;;;17.84;46.64;100327.28;5036549;28;45357;-61
2022/05/24 10:53:49;;;;;;;;;0.00;0.00;;;;;17.81;47.37;100324.88;5037472;28;45273;-61
2022/05/24 10:56:29;;;;;;;;;1.67;1.67;;;;;17.81;47.37;100322.19;5035577;28;47225;-62
2022/05/24 10:59:13;;;;;;;;;2.67;1.00;;;;;17.79;47.55;100327.69;5037174;28;45394;-61
2022/05/24 11:01:51;;;;;;;;;1.67;1.67;;;;;18.01;46.08;100325.75;5037121;28;45314;-61
2022/05/24 11:04:23;;;;;;;;;1.00;1.00;;;;;18.33;46.25;100330.88;5037258;28;45258;-62
2022/05/24 11:07:11;;;;;;;;;0.00;0.00;;;;;18.48;45.39;100324.91;5036835;28;46119;-62
2022/05/24 11:09:49;;;;;;;;;4.00;4.00;;;;;18.45;45.87;100321.66;5052365;28;46065;-61
2022/05/24 11:12:29;;;;;;;;;1.00;1.00;;;;;18.46;45.42;100315.28;5035749;28;45250;-60
2022/05/24 11:14:59;;;;;;;;;0.00;0.00;;;;;18.43;45.22;100323.63;5037370;28;45406;-61
2022/05/24 11:17:25;;;;;;;;;3.00;1.00;;;;;18.44;44.87;100323.50;5045835;28;46075;-60
2022/05/24 11:19:54;;;;;;;;;0.33;0.33;;;;;18.45;45.15;100327.88;5048043;28;45241;-62
2022/05/24 11:22:26;;;;;;;;;0.33;0.33;;;;;18.48;45.41;100324.06;5023161;28;45769;-61
2022/05/24 11:25:11;;;;;;;;;1.67;0.67;;;;;18.57;45.16;100323.19;5018341;28;45173;-61
2022/05/24 11:27:41;;;;;;;;;1.00;1.00;;;;;18.71;45.67;100317.41;5026004;28;45348;-63
2022/05/24 11:30:15;;;;;;;;;1.00;1.00;;;;;18.82;45.15;100313.69;5037673;28;45438;-60
2022/05/24 11:32:46;;;;;;;;;1.00;1.00;;;;;18.85;44.52;100316.94;5037327;28;45367;-61
2022/05/24 11:35:25;;;;;;;;;1.00;1.00;;;;;18.86;44.75;100317.78;5016845;28;45530;-62
2022/05/24 11:37:55;;;;;;;;;0.00;0.00;;;;;18.88;43.86;100314.94;5016442;28;46114;-61
2022/05/24 11:40:30;;;;;;;;;0.00;0.00;;;;;18.87;43.73;100319.47;5028120;28;45352;-61
2022/05/24 11:43:08;;;;;;;;;0.00;0.00;;;;;18.89;42.42;100311.28;5015356;28;45304;-60
2022/05/24 11:45:34;;;;;;;;;1.67;0.00;;;;;19.11;43.26;100313.59;5026340;28;45512;-60
2022/05/24 11:48:06;;;;;;;;;0.00;0.00;;;;;19.31;40.54;100306.28;5016168;28;45527;-61
2022/05/24 11:50:31;;;;;;;;;2.00;0.00;;;;;19.32;41.40;100306.13;5029954;28;45524;-60
2022/05/24 11:53:09;;;;;;;;;0.67;0.67;;;;;19.34;42.00;100308.69;5017243;28;46449;-62
2022/05/24 11:55:41;;;;;;;;;1.33;1.33;;;;;19.31;43.25;100309.84;5016292;28;45378;-60
2022/05/24 11:58:22;;;;;;;;;1.00;1.00;;;;;19.36;40.86;100321.00;5016403;28;45524;-62
2022/05/24 12:01:03;;;;;;;;;0.00;0.00;;;;;19.42;41.83;100308.78;5035141;28;45441;-62
2022/05/24 12:09:24;;;;;;;;;2.00;0.67;;;;;19.79;42.13;100311.44;5015929;28;45792;-61
2022/05/24 12:12:13;;;;;;;;;0.00;0.00;;;;;19.99;42.00;100315.72;5015727;28;45344;-62
2022/05/24 12:14:39;;;;;;;;;0.00;0.00;;;;;19.94;42.29;100318.03;5014977;28;45378;-63
2022/05/24 12:17:04;;;;;;;;;1.00;1.00;;;;;20.01;41.24;100319.09;5027814;28;45511;-62
2022/05/24 12:19:45;;;;;;;;;0.00;0.00;;;;;20.14;41.49;100318.72;5032241;28;46684;-62